Aeroporto :
LOGIN :

Iscrizione | Disclaimer

   EN    FR    IT 

 










Sommario :    VFR   VFR Marginale   IFR   IFR Intensivo   IFR Molto Intensivo
Visibilità : 
Base nubi : 
>= 8 km
>= 3000ft
5 / 8 km
1000 / 3000 ft
1500m / 5 km
500 / 1000 ft
800 / 1500m
200 / 500 ft
< 800m
< 200 ft
Simboli :   Temporali  Nebbia  Neve Forte  Precipitazioni Forti  Vento > 20 kt
SIGMETs :   Varie  Temporali  Ghiacco  Turbolenza  Onda orograficha  Ceneri Vulcaniche






- Altitudine del aeroporto : 844 ft
- Codice IATA : OSR


LKMT - Ostrava-Mosnov

ULTIMO METAR :
  • 240354Z 24011KT 1200 R22/1900D R04/1500N BR OVC002 01/01 Q1030 RMK REG QNH 1025

METARs OBSOLETI :
  • 240339Z 23011KT 1200 R22/1700U R04/1700D BR OVC003 01/01 Q1030 RMK REG QNH 1025
  • 240330Z 23010KT 2500 BR BKN004 OVC040 01/01 Q1030 TEMPO 1200 BR OVC002
  • 240300Z 24010KT 2500 BR BKN004 OVC040 01/01 Q1030 NOSIG
  • 240230Z 23007KT 3500 BR SCT003 OVC040 02/01 Q1030 TEMPO 2500 BR BKN003
  • 240200Z 23007KT 4500 BR FEW003 OVC040 02/02 Q1030 TEMPO 2500 BR BKN003
  • 240130Z 23007KT 4500 BR OVC041 02/01 Q1030 NOSIG
  • 240100Z 23007KT 4500 BR OVC040 02/01 Q1030 NOSIG

TAF AMD TAF LKMT
Valido dal 24 a 03 ore il 25 a 06 ore UTC


240330Z 2403/2506 23008KT 2000 BR BKN006
TEMPO 2403/2408 0700 FZFG BKN001
BECMG 2410/2412 23010G20KT CAVOK



MetMap, La meteo Aeronautica in un colpo d'occhio ! - Copyright ORBIFLY Dicembre 2007 - Disclaimer

ORBIFLY MET'MAP TEAM :

Programmazione e sviluppo : Alexandra Zaïnal
Concezione : Baudouin d'Aumeries
Aiuto per la programmazione : Marc-Olivier Méhu
Supporto tecnico e logistico : Manuel Goepfert
Aiuto per la traduzione : Arnaldo La Scala

Contatto : metmap@orbifly.com




FONTI E CREDITI :

   NOAA